Time;durP1;ratioP1;P1;durP2;ratioP2;P2;SDS_P1;SDS_P2;PMS_P1;PMS_P2;Temp;Humidity;BMP_temperature;BMP_pressure;BME280_temperature;BME280_humidity;BME280_pressure;Samples;Min_cycle;Max_cycle;Signal;HPM_P1;HPM_P2
2023/09/26 00:02:12;;;;;;;25.33;6.35;;;;;;;19.18;76.84;99234.97;5060042;28;20494;-87
2023/09/26 00:04:57;;;;;;;33.35;6.95;;;;;;;19.21;77.18;99231.81;5065244;28;20166;-87
2023/09/26 00:07:42;;;;;;;19.30;5.85;;;;;;;19.31;77.49;99233.00;5061611;28;20084;-87
2023/09/26 00:10:26;;;;;;;18.42;5.65;;;;;;;19.31;77.54;99222.38;5067717;28;20124;-89
2023/09/26 00:13:10;;;;;;;24.30;5.97;;;;;;;19.51;77.58;99227.09;5058011;28;20052;-89
2023/09/26 00:15:54;;;;;;;26.30;6.30;;;;;;;19.32;78.17;99208.00;5060432;28;20048;-87
2023/09/26 00:18:40;;;;;;;24.33;7.72;;;;;;;19.39;78.18;99220.06;5064939;28;20481;-88
2023/09/26 00:21:24;;;;;;;22.83;6.00;;;;;;;19.35;77.80;99212.81;5057196;28;20449;-87
2023/09/26 00:24:08;;;;;;;22.17;5.53;;;;;;;19.27;77.92;99217.53;5061589;28;20047;-88
2023/09/26 00:26:52;;;;;;;21.80;6.50;;;;;;;19.16;78.29;99218.44;5059993;28;20040;-88
2023/09/26 00:29:36;;;;;;;23.25;5.78;;;;;;;19.22;78.07;99230.75;5060325;28;20044;-88
2023/09/26 00:32:20;;;;;;;25.92;6.63;;;;;;;19.23;78.50;99220.94;5061682;28;20089;-88
2023/09/26 00:35:08;;;;;;;26.23;7.18;;;;;;;19.32;78.11;99218.66;5056014;28;20070;-87
2023/09/26 00:37:54;;;;;;;20.13;6.20;;;;;;;19.27;78.44;99216.72;5055611;28;20059;-87
2023/09/26 00:40:42;;;;;;;32.28;7.03;;;;;;;19.33;78.59;99213.06;5063944;28;20047;-87
2023/09/26 00:43:26;;;;;;;15.00;6.45;;;;;;;19.18;79.22;99219.00;5067578;28;20106;-84
2023/09/26 00:46:11;;;;;;;15.43;5.75;;;;;;;19.15;78.75;99224.00;5047099;28;20175;-88
2023/09/26 00:48:56;;;;;;;22.85;6.38;;;;;;;19.09;79.08;99217.84;5063537;28;20051;-87
2023/09/26 00:51:40;;;;;;;16.73;5.70;;;;;;;19.08;79.04;99219.69;5063632;28;20078;-87
2023/09/26 00:54:26;;;;;;;21.13;6.47;;;;;;;19.12;79.84;99217.34;5056854;28;21737;-87
2023/09/26 00:57:11;;;;;;;35.00;8.13;;;;;;;19.17;79.42;99211.28;5062116;28;20054;-87
2023/09/26 00:59:55;;;;;;;19.05;6.95;;;;;;;19.10;79.25;99208.81;5062098;28;20055;-85
2023/09/26 01:02:41;;;;;;;18.73;7.22;;;;;;;19.05;79.27;99201.56;5060570;28;20145;-86
2023/09/26 01:05:26;;;;;;;19.05;6.47;;;;;;;19.05;79.26;99203.41;5060859;28;20047;-86
2023/09/26 01:08:11;;;;;;;17.17;5.80;;;;;;;18.95;80.01;99196.88;5064768;28;20083;-86
2023/09/26 01:10:57;;;;;;;21.00;6.95;;;;;;;18.92;79.88;99189.41;5064637;28;20094;-86
2023/09/26 01:13:41;;;;;;;18.75;6.13;;;;;;;18.95;80.17;99188.06;5045590;28;20510;-86
2023/09/26 01:16:25;;;;;;;17.52;6.10;;;;;;;18.90;79.97;99188.03;5059845;28;20552;-86
2023/09/26 01:19:10;;;;;;;16.25;5.80;;;;;;;18.90;79.86;99182.69;5060210;28;20056;-86
2023/09/26 01:21:54;;;;;;;20.75;5.97;;;;;;;18.95;79.76;99186.25;5059818;28;20106;-87
2023/09/26 01:24:39;;;;;;;22.70;6.43;;;;;;;18.89;80.21;99183.75;5065755;28;20687;-86
2023/09/26 01:27:23;;;;;;;22.65;6.68;;;;;;;18.88;80.92;99188.28;5065579;28;20047;-86
2023/09/26 01:30:09;;;;;;;23.05;7.15;;;;;;;19.07;80.53;99182.69;5059157;28;20398;-85
2023/09/26 01:32:53;;;;;;;16.95;6.85;;;;;;;19.10;80.41;99182.19;5061975;28;20047;-87
2023/09/26 01:35:37;;;;;;;27.00;6.90;;;;;;;19.15;80.66;99182.25;5058541;28;20051;-86
2023/09/26 01:38:23;;;;;;;25.77;7.70;;;;;;;19.18;80.48;99179.09;5062110;28;20126;-86
2023/09/26 01:41:07;;;;;;;30.63;7.25;;;;;;;19.30;80.86;99183.50;5061353;28;20725;-87
2023/09/26 01:43:52;;;;;;;29.40;7.30;;;;;;;19.35;81.10;99180.88;5059139;28;20035;-88
2023/09/26 01:46:36;;;;;;;25.08;6.55;;;;;;;19.43;81.66;99177.78;5068149;28;20543;-88
2023/09/26 01:49:20;;;;;;;24.08;7.00;;;;;;;19.48;81.58;99175.19;5062130;28;20072;-87
2023/09/26 01:52:04;;;;;;;27.08;6.85;;;;;;;19.47;81.99;99176.25;5057862;28;20529;-87
2023/09/26 01:54:48;;;;;;;28.45;7.68;;;;;;;19.58;82.39;99163.03;5058956;28;20044;-88
2023/09/26 01:57:32;;;;;;;;;;;;;;;19.70;82.28;99171.66;5062461;28;20086;-88
2023/09/26 02:00:19;;;;;;;34.03;7.88;;;;;;;19.75;83.40;99171.72;5060107;28;19971;-87
2023/09/26 02:03:03;;;;;;;28.30;7.55;;;;;;;20.02;83.30;99157.59;5055856;28;20445;-86
2023/09/26 02:05:47;;;;;;;33.83;9.13;;;;;;;20.25;83.02;99147.66;5061893;28;20506;-87
2023/09/26 02:08:32;;;;;;;32.42;9.07;;;;;;;20.39;83.57;99151.47;5055946;28;20543;-88
2023/09/26 02:11:19;;;;;;;30.48;8.88;;;;;;;20.57;83.58;99149.44;5057348;28;20044;-88
2023/09/26 02:14:04;;;;;;;28.05;8.23;;;;;;;20.62;84.02;99162.78;5063281;28;20400;-87
2023/09/26 02:16:48;;;;;;;32.67;8.85;;;;;;;20.78;83.99;99155.69;5061282;28;20110;-88
2023/09/26 02:19:32;;;;;;;28.35;8.68;;;;;;;20.80;83.96;99150.13;5056495;28;20090;-88
2023/09/26 02:22:18;;;;;;;34.35;9.75;;;;;;;20.93;83.72;99148.84;5057945;28;20047;-86
2023/09/26 02:25:02;;;;;;;36.40;10.70;;;;;;;21.06;83.33;99134.22;5061526;28;20127;-88
2023/09/26 02:27:48;;;;;;;36.28;9.73;;;;;;;21.02;83.60;99135.78;5050062;28;20130;-87
2023/09/26 02:30:32;;;;;;;31.50;9.30;;;;;;;20.97;84.09;99140.06;5060906;28;20066;-87
2023/09/26 02:33:16;;;;;;;40.70;10.82;;;;;;;21.00;84.40;99135.25;5057109;28;20047;-86
2023/09/26 02:36:00;;;;;;;38.97;11.07;;;;;;;21.23;83.65;99137.50;5059468;28;20042;-86
2023/09/26 02:38:44;;;;;;;35.50;10.60;;;;;;;21.40;83.01;99131.09;5058632;28;20051;-87
2023/09/26 02:41:28;;;;;;;42.75;11.80;;;;;;;21.51;82.95;99132.72;5054769;28;20047;-87
2023/09/26 02:44:12;;;;;;;45.47;13.45;;;;;;;21.13;84.31;99132.09;5060704;28;20048;-87
2023/09/26 02:46:56;;;;;;;47.60;15.13;;;;;;;21.08;84.56;99116.88;5059563;28;20063;-86
2023/09/26 02:49:41;;;;;;;43.08;14.13;;;;;;;21.08;85.18;99126.75;5065468;28;20083;-86
2023/09/26 02:52:25;;;;;;;34.83;14.80;;;;;;;21.41;84.56;99132.69;5058934;28;20470;-86
2023/09/26 02:55:11;;;;;;;49.15;14.82;;;;;;;21.43;83.59;99130.59;5063628;28;20552;-87
2023/09/26 02:57:55;;;;;;;42.08;14.32;;;;;;;20.99;84.77;99129.13;5063049;28;20238;-86
2023/09/26 03:00:42;;;;;;;41.28;13.73;;;;;;;20.75;84.92;99118.06;5062805;28;20047;-85
2023/09/26 03:03:26;;;;;;;38.42;13.32;;;;;;;21.01;83.89;99107.50;5063422;28;20090;-86
2023/09/26 03:06:10;;;;;;;28.45;12.48;;;;;;;20.91;83.69;99109.09;5067924;28;20056;-87
2023/09/26 03:08:55;;;;;;;29.65;12.50;;;;;;;20.81;83.19;99103.69;5063242;28;20106;-86
2023/09/26 03:11:39;;;;;;;27.55;13.55;;;;;;;20.69;83.77;99106.56;5060619;28;20109;-86
2023/09/26 03:14:25;;;;;;;30.95;12.23;;;;;;;20.61;83.24;99104.41;5061243;28;20039;-86
2023/09/26 03:17:09;;;;;;;33.65;12.07;;;;;;;20.48;83.51;99108.34;5065426;28;20053;-87
2023/09/26 03:19:53;;;;;;;33.58;11.63;;;;;;;20.30;83.95;99098.88;5061525;28;20044;-86
2023/09/26 03:22:38;;;;;;;33.70;12.73;;;;;;;20.32;84.19;99105.56;5066122;28;20180;-85
2023/09/26 03:25:22;;;;;;;38.97;12.40;;;;;;;20.23;84.07;99091.09;5068093;28;20040;-87
2023/09/26 03:28:06;;;;;;;33.70;13.45;;;;;;;20.19;83.64;99106.81;5057318;28;20524;-86
2023/09/26 03:30:50;;;;;;;36.30;12.27;;;;;;;20.08;84.24;99097.97;5070103;28;20125;-87
2023/09/26 03:33:35;;;;;;;33.13;12.32;;;;;;;20.08;83.83;99091.81;5061947;28;20044;-87
2023/09/26 03:36:19;;;;;;;47.22;14.07;;;;;;;20.04;84.25;99086.19;5064105;28;20090;-86
2023/09/26 03:39:03;;;;;;;30.73;11.73;;;;;;;20.02;84.44;99085.66;5065479;28;20102;-87
2023/09/26 03:41:49;;;;;;;34.20;12.55;;;;;;;20.08;84.24;99089.97;5059247;28;20538;-86
2023/09/26 03:44:33;;;;;;;45.75;11.98;;;;;;;19.95;85.26;99087.75;5060382;28;20553;-87
2023/09/26 03:47:17;;;;;;;44.30;13.40;;;;;;;20.02;85.31;99090.97;5062563;28;20055;-85
2023/09/26 03:50:01;;;;;;;43.38;13.07;;;;;;;19.96;85.14;99087.50;5063301;28;20085;-85
2023/09/26 03:52:45;;;;;;;41.15;12.48;;;;;;;19.95;85.32;99080.56;5057499;28;20552;-85
2023/09/26 03:55:29;;;;;;;33.30;11.90;;;;;;;19.89;85.50;99073.53;5063248;28;20466;-85
2023/09/26 03:58:13;;;;;;;44.63;13.05;;;;;;;19.91;85.40;99067.97;5059011;28;20137;-87
2023/09/26 04:01:10;;;;;;;45.22;12.85;;;;;;;19.74;86.18;99058.25;5064123;28;20166;-86
2023/09/26 04:03:54;;;;;;;40.70;12.25;;;;;;;19.79;85.90;99041.53;5056667;28;20120;-85
2023/09/26 04:06:41;;;;;;;32.60;12.15;;;;;;;19.76;86.11;99032.16;5054695;28;20044;-86
2023/09/26 04:09:25;;;;;;;40.13;13.70;;;;;;;19.80;85.40;99037.81;5065210;28;20055;-87
2023/09/26 04:12:10;;;;;;;41.20;12.30;;;;;;;19.76;86.15;99037.50;5064912;28;20094;-87
2023/09/26 04:14:54;;;;;;;34.67;11.80;;;;;;;19.63;85.86;99043.25;5059279;28;20414;-86
2023/09/26 04:17:38;;;;;;;30.50;11.75;;;;;;;19.45;87.22;99047.09;5063491;28;20090;-86
2023/09/26 04:20:22;;;;;;;41.35;12.60;;;;;;;19.46;86.84;99038.88;5063114;28;20120;-86
2023/09/26 04:23:07;;;;;;;23.85;10.95;;;;;;;19.36;86.54;99033.44;5062343;28;20091;-87
2023/09/26 04:25:53;;;;;;;32.65;10.50;;;;;;;19.43;86.67;99039.34;5060508;28;20043;-86
2023/09/26 04:28:37;;;;;;;37.05;11.50;;;;;;;19.33;87.68;99034.75;5066249;28;20519;-88
2023/09/26 04:31:21;;;;;;;25.17;11.00;;;;;;;19.31;87.44;99030.75;5064533;28;20153;-86
2023/09/26 04:34:05;;;;;;;30.75;10.20;;;;;;;19.34;86.96;99028.38;5060644;28;20083;-88
2023/09/26 04:36:49;;;;;;;36.08;11.77;;;;;;;19.40;86.94;99023.91;5046283;28;20072;-87
2023/09/26 04:39:33;;;;;;;34.33;11.95;;;;;;;19.27;87.20;99025.94;5063923;28;20082;-87
2023/09/26 04:42:17;;;;;;;36.03;12.75;;;;;;;19.22;87.80;99023.22;5059836;28;20067;-87
2023/09/26 04:45:02;;;;;;;34.08;12.15;;;;;;;19.29;87.74;99020.34;5060537;28;20052;-87
2023/09/26 04:47:46;;;;;;;35.47;12.45;;;;;;;19.43;87.79;99034.03;5058914;28;20453;-87
2023/09/26 04:50:30;;;;;;;37.13;13.60;;;;;;;19.54;88.42;99032.25;5061141;28;20079;-88
2023/09/26 04:53:16;;;;;;;48.30;14.75;;;;;;;19.54;89.30;99025.09;5059848;28;20106;-86
2023/09/26 04:56:01;;;;;;;45.42;16.20;;;;;;;19.67;89.36;99007.88;5057048;28;20387;-86
2023/09/26 04:58:45;;;;;;;38.65;14.57;;;;;;;19.75;89.11;99008.44;5064858;28;20048;-86
2023/09/26 05:01:29;;;;;;;42.40;15.65;;;;;;;19.89;88.81;99004.28;5061881;28;20410;-87
2023/09/26 05:04:14;;;;;;;31.77;14.77;;;;;;;20.02;89.29;99013.72;5061089;28;20097;-87
2023/09/26 05:06:59;;;;;;;41.83;14.90;;;;;;;19.96;89.92;98998.78;5062882;28;20067;-87
2023/09/26 05:09:43;;;;;;;43.75;16.40;;;;;;;20.02;89.42;98992.41;5065006;28;20051;-86
2023/09/26 05:12:28;;;;;;;43.08;14.10;;;;;;;20.06;89.46;98998.03;5057109;28;20044;-86
2023/09/26 05:15:15;;;;;;;40.50;14.95;;;;;;;20.10;89.21;98989.25;5057924;28;20524;-87
2023/09/26 05:17:59;;;;;;;34.40;11.93;;;;;;;20.09;89.43;98995.66;5060031;28;20126;-86
2023/09/26 05:20:43;;;;;;;34.42;11.63;;;;;;;20.13;89.11;98993.25;5059200;28;20076;-86
2023/09/26 05:23:29;;;;;;;32.47;11.50;;;;;;;20.20;89.25;98996.50;5064882;28;20556;-86
2023/09/26 05:26:13;;;;;;;36.30;11.32;;;;;;;20.20;89.44;98999.16;5061252;28;20090;-85
2023/09/26 05:28:57;;;;;;;23.05;10.40;;;;;;;20.23;89.22;99000.50;5059186;28;20043;-86
2023/09/26 05:31:41;;;;;;;38.40;13.80;;;;;;;20.29;89.13;98996.81;5058096;28;20052;-86
2023/09/26 05:34:25;;;;;;;39.28;13.93;;;;;;;20.31;89.25;99002.69;5060326;28;20044;-86
2023/09/26 05:37:09;;;;;;;35.92;14.88;;;;;;;20.37;89.04;98990.97;5060878;28;20056;-86
2023/09/26 05:39:53;;;;;;;40.80;13.57;;;;;;;20.36;88.73;98986.69;5055479;28;20048;-87
2023/09/26 05:42:39;;;;;;;38.58;14.88;;;;;;;20.28;88.94;98995.22;5062283;28;20727;-85
2023/09/26 05:45:23;;;;;;;45.75;16.90;;;;;;;20.16;89.46;98997.28;5060495;28;20066;-86
2023/09/26 05:48:07;;;;;;;37.42;15.57;;;;;;;20.12;89.69;98991.66;5060722;28;20573;-86
2023/09/26 05:50:58;;;;;;;40.83;16.23;;;;;;;20.24;89.40;98986.09;5067012;28;20055;-85
2023/09/26 05:53:44;;;;;;;36.90;15.60;;;;;;;20.27;89.40;98977.63;5062357;28;20048;-87
2023/09/26 05:56:28;;;;;;;40.70;16.45;;;;;;;20.24;89.31;98970.13;5053758;28;20532;-86
2023/09/26 05:59:12;;;;;;;46.63;15.63;;;;;;;20.20;89.53;98966.38;5063365;28;20047;-85
2023/09/26 06:01:56;;;;;;;42.17;16.38;;;;;;;20.06;89.60;98966.88;5060205;28;20127;-86
2023/09/26 06:04:44;;;;;;;45.40;16.20;;;;;;;20.08;89.57;98954.09;5063160;28;20105;-87
2023/09/26 06:07:28;;;;;;;42.70;15.93;;;;;;;20.00;89.63;98956.44;5061791;28;20040;-86
2023/09/26 06:10:14;;;;;;;54.97;16.83;;;;;;;19.74;90.56;98975.72;5058987;28;20077;-87
2023/09/26 06:12:58;;;;;;;48.33;17.08;;;;;;;19.80;90.73;98980.00;5063518;28;20125;-88
2023/09/26 06:15:42;;;;;;;47.28;16.60;;;;;;;19.92;90.66;98971.06;5058932;28;20561;-88
2023/09/26 06:18:27;;;;;;;51.85;17.23;;;;;;;19.87;91.42;98974.44;5062035;28;20117;-86
2023/09/26 06:21:13;;;;;;;43.70;18.55;;;;;;;20.11;90.75;98953.56;5063020;28;20055;-86
2023/09/26 06:23:56;;;;;;;46.85;16.55;;;;;;;20.33;90.75;98979.22;5060528;28;20044;-86
2023/09/26 06:26:40;;;;;;;60.35;17.88;;;;;;;20.23;89.94;98984.50;5064244;28;20047;-90
2023/09/26 06:29:25;;;;;;;43.50;15.90;;;;;;;20.50;90.46;98967.56;5066339;28;20039;-86
2023/09/26 06:32:10;;;;;;;47.10;17.75;;;;;;;20.57;90.03;98968.09;5033003;28;20095;-88
2023/09/26 06:35:03;;;;;;;46.70;17.33;;;;;;;20.54;89.37;98960.63;5064393;28;20493;-88
2023/09/26 06:37:47;;;;;;;44.47;16.00;;;;;;;20.53;90.23;98959.81;5068072;28;20076;-87
2023/09/26 06:40:31;;;;;;;31.05;14.88;;;;;;;20.54;89.48;98939.31;5064972;28;20047;-89
2023/09/26 06:43:14;;;;;;;38.90;15.27;;;;;;;20.51;89.48;98945.19;5061009;28;20047;-88
2023/09/26 06:46:08;;;;;;;44.22;16.30;;;;;;;20.59;89.77;98947.31;5070156;28;20071;-87
2023/09/26 06:48:53;;;;;;;37.30;15.40;;;;;;;20.61;89.94;98942.53;5061735;28;20082;-87
2023/09/26 06:51:37;;;;;;;43.72;15.38;;;;;;;20.63;90.08;98953.72;5062619;28;20128;-87
2023/09/26 06:54:21;;;;;;;43.65;14.70;;;;;;;20.75;90.01;98944.69;5065264;28;20054;-88
2023/09/26 06:57:05;;;;;;;54.00;15.48;;;;;;;20.84;89.47;98943.16;5063286;28;20124;-86
2023/09/26 06:59:50;;;;;;;40.38;14.23;;;;;;;20.71;89.74;98932.94;5062393;28;20071;-87
2023/09/26 07:02:35;;;;;;;36.15;14.35;;;;;;;20.62;89.46;98933.44;5064981;28;20064;-86
2023/09/26 07:05:20;;;;;;;55.75;15.35;;;;;;;20.61;89.08;98931.84;5062859;28;20475;-87
2023/09/26 07:08:05;;;;;;;40.42;14.73;;;;;;;20.63;89.54;98926.25;5064490;28;20032;-88
2023/09/26 07:10:52;;;;;;;36.65;14.93;;;;;;;20.82;89.18;98929.25;5061974;28;20043;-88
2023/09/26 07:13:36;;;;;;;34.75;13.07;;;;;;;20.89;89.39;98929.81;5059816;28;20504;-90
2023/09/26 07:16:20;;;;;;;43.55;14.27;;;;;;;20.92;88.81;98934.59;5063690;28;20071;-89
2023/09/26 07:19:05;;;;;;;41.33;13.73;;;;;;;20.98;88.61;98927.41;5060731;28;20560;-89
2023/09/26 07:21:49;;;;;;;37.03;14.10;;;;;;;21.10;88.86;98924.47;5063611;28;20082;-88
2023/09/26 07:24:33;;;;;;;46.05;14.98;;;;;;;21.30;88.51;98922.88;5063464;28;20470;-88
2023/09/26 07:27:18;;;;;;;43.20;14.93;;;;;;;20.94;87.65;98932.47;5065064;28;20052;-88
2023/09/26 07:30:04;;;;;;;45.45;15.07;;;;;;;21.11;88.22;98926.88;5055169;28;20064;-88
2023/09/26 07:32:48;;;;;;;31.05;12.75;;;;;;;21.38;88.56;98930.31;5067187;28;20055;-88
2023/09/26 07:35:32;;;;;;;36.83;14.48;;;;;;;21.44;87.93;98939.94;5056886;28;20146;-88
2023/09/26 07:38:16;;;;;;;42.30;14.77;;;;;;;21.46;88.23;98939.66;5056318;28;20088;-88
2023/09/26 07:41:01;;;;;;;32.95;14.10;;;;;;;21.41;87.58;98945.81;5061223;28;20082;-88
2023/09/26 07:43:45;;;;;;;32.90;13.55;;;;;;;21.36;86.95;98937.81;5065062;28;20102;-89
2023/09/26 07:46:29;;;;;;;28.80;13.85;;;;;;;21.38;87.19;98935.66;5055399;28;20178;-87
2023/09/26 07:49:13;;;;;;;36.63;13.60;;;;;;;21.32;86.87;98900.19;5058449;28;20044;-87
2023/09/26 07:51:57;;;;;;;27.33;13.07;;;;;;;21.30;86.96;98893.50;5059613;28;20070;-89
2023/09/26 07:54:41;;;;;;;27.15;11.90;;;;;;;21.33;87.42;98892.97;5065321;28;20039;-88
2023/09/26 07:57:26;;;;;;;32.78;13.10;;;;;;;21.20;86.51;98903.09;5061195;28;20090;-89
2023/09/26 08:00:12;;;;;;;32.28;12.18;;;;;;;21.25;87.37;98905.78;5060140;28;20040;-88
2023/09/26 08:02:56;;;;;;;32.53;12.75;;;;;;;21.25;87.00;98889.78;5060042;28;20521;-88
2023/09/26 08:05:40;;;;;;;33.97;13.23;;;;;;;21.21;86.95;98882.56;5057990;28;20551;-87
2023/09/26 08:08:24;;;;;;;32.92;13.57;;;;;;;21.16;86.95;98872.69;5059445;28;20106;-88
2023/09/26 08:11:10;;;;;;;30.58;13.30;;;;;;;21.24;86.72;98887.38;5063872;28;20119;-87
2023/09/26 08:13:56;;;;;;;29.42;12.13;;;;;;;21.26;86.92;98891.38;5061477;28;20052;-86
2023/09/26 08:16:40;;;;;;;31.98;11.98;;;;;;;21.36;86.90;98890.56;5060513;28;20040;-88
2023/09/26 08:19:26;;;;;;;25.70;11.02;;;;;;;21.53;87.17;98895.59;5064107;28;20109;-86
2023/09/26 08:22:11;;;;;;;25.88;10.98;;;;;;;21.73;87.33;98893.97;5059848;28;20044;-86
2023/09/26 08:24:56;;;;;;;32.83;12.63;;;;;;;21.86;86.59;98867.75;5060607;28;20394;-87
2023/09/26 08:27:41;;;;;;;26.48;10.93;;;;;;;22.03;86.87;98828.13;5061350;28;20043;-86
2023/09/26 08:30:26;;;;;;;25.70;12.73;;;;;;;22.06;86.63;98776.78;5065458;28;20039;-87
2023/09/26 08:33:10;;;;;;;38.58;16.83;;;;;;;22.36;86.55;98815.06;5060053;28;20120;-87
2023/09/26 08:35:55;;;;;;;30.73;14.18;;;;;;;22.22;85.58;98854.22;5063903;28;20090;-86
2023/09/26 08:38:40;;;;;;;35.67;15.27;;;;;;;22.09;86.35;98845.72;5058265;28;20135;-86
2023/09/26 08:41:27;;;;;;;30.33;14.82;;;;;;;21.89;86.11;98837.81;5063987;28;20124;-87
2023/09/26 08:44:12;;;;;;;30.73;14.15;;;;;;;22.14;86.08;98852.09;5062744;28;20043;-87
2023/09/26 08:46:57;;;;;;;63.28;22.95;;;;;;;21.92;87.22;98859.44;5062328;28;20098;-88
2023/09/26 08:49:44;;;;;;;32.95;15.48;;;;;;;22.06;86.69;98886.38;5056712;28;20039;-86
2023/09/26 08:52:28;;;;;;;29.58;13.82;;;;;;;22.15;86.13;98893.81;5065313;28;20421;-87
2023/09/26 08:55:13;;;;;;;28.42;12.15;;;;;;;21.97;86.44;98909.38;5059905;28;20056;-86
2023/09/26 08:57:57;;;;;;;28.88;13.32;;;;;;;22.06;86.11;98883.69;5063524;28;20036;-86
2023/09/26 09:00:42;;;;;;;25.23;12.07;;;;;;;22.09;85.46;98874.31;5063299;28;20082;-87
2023/09/26 09:03:26;;;;;;;29.60;12.35;;;;;;;22.01;85.64;98829.47;5063908;28;20085;-87
2023/09/26 09:06:10;;;;;;;23.63;10.63;;;;;;;22.00;84.27;98775.19;5058448;28;20050;-86
2023/09/26 09:09:13;;;;;;;22.65;10.77;;;;;;;21.87;85.45;98787.31;5058517;28;20121;-87
2023/09/26 09:11:57;;;;;;;22.08;10.00;;;;;;;22.00;85.42;98825.97;5062700;28;20513;-87
2023/09/26 09:14:42;;;;;;;23.55;9.93;;;;;;;21.85;86.61;98800.16;5064495;28;20048;-86
2023/09/26 09:17:39;;;;;;;19.42;10.35;;;;;;;22.18;86.25;98819.22;5060921;28;20039;-86
2023/09/26 09:20:34;;;;;;;17.73;9.80;;;;;;;22.24;85.94;98817.31;5065123;28;20090;-87
2023/09/26 09:23:18;;;;;;;23.55;9.88;;;;;;;22.57;85.75;98831.00;5058004;28;20178;-88
2023/09/26 09:26:11;;;;;;;24.35;10.55;;;;;;;22.90;84.49;98817.88;5059504;28;20399;-86
2023/09/26 09:28:58;;;;;;;26.02;10.60;;;;;;;23.58;83.59;98825.25;5056608;28;20076;-86
2023/09/26 09:31:42;;;;;;;24.20;9.27;;;;;;;23.77;82.64;98820.72;5064455;28;20428;-89
2023/09/26 09:34:27;;;;;;;17.42;8.85;;;;;;;23.70;81.40;98827.53;5058802;28;20098;-87
2023/09/26 09:37:12;;;;;;;18.00;7.82;;;;;;;23.73;81.51;98827.75;5058984;28;20133;-86
2023/09/26 09:39:58;;;;;;;19.73;8.52;;;;;;;23.85;81.55;98818.50;5060271;28;20056;-91
2023/09/26 09:42:42;;;;;;;16.08;6.65;;;;;;;23.86;80.75;98815.50;5057343;28;20052;-86
2023/09/26 09:45:34;;;;;;;16.90;7.55;;;;;;;23.85;80.76;98810.47;5058132;28;20107;-88
2023/09/26 09:48:22;;;;;;;15.80;7.15;;;;;;;24.07;79.63;98802.66;5055139;28;20039;-87
2023/09/26 09:51:09;;;;;;;11.32;6.13;;;;;;;24.86;79.99;98789.66;5058729;28;20486;-87
2023/09/26 09:53:54;;;;;;;15.35;6.72;;;;;;;25.48;79.40;98779.66;5060600;28;20087;-87
2023/09/26 09:56:39;;;;;;;15.82;6.35;;;;;;;25.77;78.90;98808.88;5061827;28;20118;-88
2023/09/26 09:59:28;;;;;;;11.98;6.10;;;;;;;25.67;77.05;98809.91;5045667;28;20064;-88
2023/09/26 10:02:15;;;;;;;13.70;5.68;;;;;;;25.34;77.20;98807.28;5056267;28;20067;-89
2023/09/26 10:05:00;;;;;;;13.07;6.10;;;;;;;25.01;77.55;98803.91;5066422;28;20085;-88
2023/09/26 10:07:45;;;;;;;11.57;5.95;;;;;;;24.91;77.75;98808.34;5061833;28;20067;-89
2023/09/26 10:10:30;;;;;;;18.27;6.90;;;;;;;24.81;77.46;98801.25;5060229;28;20079;-89
2023/09/26 10:13:17;;;;;;;15.10;6.05;;;;;;;24.65;77.75;98803.41;5061356;28;20466;-88
2023/09/26 10:16:06;;;;;;;12.65;6.43;;;;;;;24.61;78.11;98805.06;5058920;28;20152;-85
2023/09/26 10:18:51;;;;;;;10.93;5.53;;;;;;;24.77;78.14;98796.81;5054942;28;20430;-87
2023/09/26 10:21:35;;;;;;;15.27;6.68;;;;;;;25.03;77.75;98791.75;5056884;28;20166;-88
2023/09/26 10:24:19;;;;;;;13.35;6.60;;;;;;;25.00;77.98;98802.31;5057634;28;20097;-87
2023/09/26 10:27:05;;;;;;;10.43;6.68;;;;;;;25.26;77.90;98799.94;5062244;28;20094;-88
2023/09/26 10:29:52;;;;;;;12.30;6.10;;;;;;;25.48;77.34;98801.94;5058791;28;20075;-87
2023/09/26 10:32:43;;;;;;;10.73;6.53;;;;;;;25.46;76.73;98798.72;5059752;28;20035;-88
2023/09/26 10:35:28;;;;;;;11.60;5.80;;;;;;;25.39;76.81;98791.06;5057707;28;20064;-87
2023/09/26 10:38:18;;;;;;;12.30;5.80;;;;;;;25.36;76.81;98782.84;5058259;28;20052;-88
2023/09/26 10:41:02;;;;;;;11.98;6.40;;;;;;;25.54;76.63;98791.88;5062708;28;20055;-88
2023/09/26 10:43:48;;;;;;;11.25;6.60;;;;;;;25.76;76.06;98801.09;5063901;28;20557;-86
2023/09/26 10:46:32;;;;;;;9.40;5.88;;;;;;;25.83;76.10;98789.94;5057237;28;20055;-88
2023/09/26 10:49:16;;;;;;;10.32;6.25;;;;;;;26.13;76.12;98788.47;5062073;28;20451;-88
2023/09/26 10:52:03;;;;;;;11.68;5.90;;;;;;;26.20;76.35;98788.06;5058054;28;20120;-88
2023/09/26 10:54:48;;;;;;;12.75;6.50;;;;;;;26.55;76.33;98772.16;5049916;28;20067;-88
2023/09/26 10:57:32;;;;;;;9.20;6.13;;;;;;;26.72;76.64;98773.34;5058348;28;20071;-87
2023/09/26 11:00:17;;;;;;;11.65;6.50;;;;;;;26.60;75.67;98763.97;5061061;28;20052;-87
2023/09/26 11:03:02;;;;;;;11.45;5.95;;;;;;;27.04;75.47;98763.38;5058046;28;20159;-88
2023/09/26 11:05:48;;;;;;;11.15;5.97;;;;;;;27.03;74.54;98775.28;5058725;28;20406;-88
2023/09/26 11:08:32;;;;;;;7.47;5.00;;;;;;;26.77;74.34;98771.31;5062628;28;20043;-87
2023/09/26 11:11:18;;;;;;;10.75;5.25;;;;;;;26.53;74.14;98785.16;5058975;28;20036;-88
2023/09/26 11:14:03;;;;;;;8.30;5.78;;;;;;;26.00;75.54;98775.84;5058564;28;20403;-85
2023/09/26 11:16:48;;;;;;;12.23;5.80;;;;;;;25.78;75.85;98763.97;5058608;28;20072;-86
2023/09/26 11:19:32;;;;;;;9.55;5.72;;;;;;;25.85;75.84;98742.03;5061231;28;20044;-87
2023/09/26 11:22:16;;;;;;;7.68;5.13;;;;;;;25.76;76.35;98739.28;5057783;28;20059;-86
2023/09/26 11:25:07;;;;;;;10.38;6.35;;;;;;;25.60;76.98;98739.63;5060956;28;20043;-86
2023/09/26 11:27:51;;;;;;;10.80;5.35;;;;;;;25.51;78.17;98736.84;5057639;28;20086;-88
2023/09/26 11:30:35;;;;;;;9.02;5.35;;;;;;;25.52;77.69;98743.81;5056836;28;20453;-87
2023/09/26 11:33:20;;;;;;;14.98;6.00;;;;;;;25.22;78.39;98743.31;5065938;28;20095;-86
2023/09/26 11:36:04;;;;;;;8.65;5.53;;;;;;;25.39;77.42;98728.50;5063490;28;20071;-86
2023/09/26 11:38:50;;;;;;;9.25;5.90;;;;;;;25.11;78.10;98736.56;5061796;28;20411;-86
2023/09/26 11:41:34;;;;;;;13.45;6.03;;;;;;;25.20;78.46;98733.97;5060999;28;20561;-86
2023/09/26 11:44:18;;;;;;;8.68;5.60;;;;;;;24.80;79.11;98745.22;5066954;28;20060;-87
2023/09/26 11:47:04;;;;;;;11.93;5.60;;;;;;;25.06;78.07;98731.28;5061228;28;20067;-87
2023/09/26 11:49:50;;;;;;;11.18;6.15;;;;;;;25.10;77.51;98732.28;5060952;28;20039;-86
2023/09/26 11:52:35;;;;;;;9.48;5.47;;;;;;;25.20;78.32;98736.66;5057928;28;20039;-86
2023/09/26 11:55:19;;;;;;;11.25;5.65;;;;;;;24.98;78.95;98729.31;5063003;28;20533;-88
2023/09/26 11:58:03;;;;;;;9.82;5.65;;;;;;;25.75;76.96;98741.19;5060046;28;20399;-87
2023/09/26 12:00:47;;;;;;;10.77;4.80;;;;;;;25.48;75.93;98726.69;5056038;28;20115;-86
2023/09/26 12:03:31;;;;;;;7.90;5.18;;;;;;;25.43;76.69;98716.03;5064567;28;20063;-86
2023/09/26 12:06:15;;;;;;;10.65;5.57;;;;;;;25.36;74.14;98718.34;5063912;28;20415;-87
2023/09/26 12:08:59;;;;;;;9.30;5.07;;;;;;;25.45;74.55;98713.03;5064154;28;20055;-86
2023/09/26 12:11:44;;;;;;;11.68;5.35;;;;;;;25.61;75.69;98719.69;5062009;28;20072;-87
2023/09/26 12:14:28;;;;;;;9.63;5.15;;;;;;;25.60;76.91;98712.75;5057634;28;20103;-86
2023/09/26 12:17:12;;;;;;;9.23;5.20;;;;;;;25.76;76.93;98705.16;5067026;28;20052;-86
2023/09/26 12:19:56;;;;;;;7.30;5.15;;;;;;;25.53;77.20;98707.78;5065910;28;20055;-85
2023/09/26 12:22:40;;;;;;;10.82;4.88;;;;;;;25.66;76.41;98705.38;5059285;28;20502;-86
2023/09/26 12:25:27;;;;;;;11.50;4.88;;;;;;;25.63;75.74;98705.97;5057504;28;20048;-87
2023/09/26 12:28:12;;;;;;;11.75;4.95;;;;;;;25.69;74.80;98691.31;5062441;28;20097;-87
2023/09/26 12:30:56;;;;;;;7.40;4.10;;;;;;;25.83;75.23;98695.84;5062547;28;20093;-86
2023/09/26 12:33:40;;;;;;;8.35;4.03;;;;;;;25.84;74.29;98684.00;5061329;28;20032;-87
2023/09/26 12:36:24;;;;;;;9.23;4.63;;;;;;;25.96;73.95;98686.94;5064074;28;20500;-86
2023/09/26 12:39:08;;;;;;;10.80;4.60;;;;;;;25.72;74.39;98689.94;5065775;28;20480;-86
2023/09/26 12:41:52;;;;;;;10.30;4.93;;;;;;;25.93;73.23;98701.78;5060481;28;20113;-86
2023/09/26 12:44:40;;;;;;;10.40;4.63;;;;;;;25.86;73.54;98697.94;5060943;28;20511;-87